createdAt,value
2017-05-12T00:00:21.690Z,0
2017-05-12T00:01:22.320Z,0
2017-05-12T00:02:22.943Z,0
2017-05-12T00:03:23.564Z,0
2017-05-12T00:04:24.154Z,0
2017-05-12T00:05:24.756Z,0
2017-05-12T00:06:25.357Z,0
2017-05-12T00:07:25.965Z,0
2017-05-12T00:08:26.559Z,0
2017-05-12T00:09:27.172Z,0
2017-05-12T00:10:27.782Z,0
2017-05-12T00:11:28.398Z,0
2017-05-12T00:12:28.995Z,0
2017-05-12T00:13:29.603Z,0
2017-05-12T00:14:30.200Z,0
2017-05-12T00:15:30.800Z,0
2017-05-12T00:16:31.400Z,0
2017-05-12T00:17:32.007Z,0
2017-05-12T00:18:32.607Z,0
2017-05-12T00:19:33.219Z,0
2017-05-12T00:20:33.825Z,0
2017-05-12T00:21:34.425Z,0
2017-05-12T00:22:35.018Z,0
2017-05-12T00:23:35.625Z,0
2017-05-12T00:24:36.237Z,0
2017-05-12T00:25:36.832Z,0
2017-05-12T00:26:37.449Z,0
2017-05-12T00:27:38.059Z,0
2017-05-12T00:28:38.663Z,0
2017-05-12T00:29:39.270Z,0
2017-05-12T00:30:39.874Z,0
2017-05-12T00:31:40.477Z,0
2017-05-12T00:32:41.085Z,0
2017-05-12T00:33:41.683Z,0
2017-05-12T00:34:42.282Z,0
2017-05-12T00:35:42.892Z,0
2017-05-12T00:36:43.502Z,0
2017-05-12T00:37:44.149Z,0
2017-05-12T00:38:44.746Z,0
2017-05-12T00:39:45.350Z,0
2017-05-12T00:40:45.956Z,0
2017-05-12T00:41:46.566Z,0
2017-05-12T00:42:47.176Z,0
2017-05-12T00:43:47.775Z,0
2017-05-12T00:44:48.388Z,0
2017-05-12T00:45:49.000Z,0
2017-05-12T00:46:49.603Z,0
2017-05-12T00:47:50.212Z,0
2017-05-12T00:48:50.823Z,0
2017-05-12T00:49:51.421Z,0
2017-05-12T00:50:52.017Z,0
2017-05-12T00:51:52.622Z,0
2017-05-12T00:52:53.228Z,0
2017-05-12T00:53:53.833Z,0
2017-05-12T00:54:54.429Z,0
2017-05-12T00:55:55.027Z,0
2017-05-12T00:56:55.634Z,0
2017-05-12T00:57:56.242Z,0
2017-05-12T00:58:56.841Z,0
2017-05-12T00:59:57.452Z,0
2017-05-12T01:00:58.067Z,0
2017-05-12T01:01:58.676Z,0
2017-05-12T01:02:59.273Z,0
2017-05-12T01:03:59.887Z,0
2017-05-12T01:05:00.500Z,0
2017-05-12T01:06:01.156Z,0
2017-05-12T01:07:01.757Z,0
2017-05-12T01:08:02.355Z,0
2017-05-12T01:09:02.953Z,0
2017-05-12T01:10:03.565Z,0
2017-05-12T01:11:04.151Z,0
2017-05-12T01:12:04.746Z,0
2017-05-12T01:13:05.356Z,0
2017-05-12T01:14:05.967Z,0
2017-05-12T01:15:06.564Z,0
2017-05-12T01:16:07.171Z,0
2017-05-12T01:17:07.766Z,0
2017-05-12T01:18:08.372Z,0
2017-05-12T01:19:08.979Z,0
2017-05-12T01:20:09.584Z,0
2017-05-12T01:21:10.192Z,0
2017-05-12T01:22:10.794Z,0
2017-05-12T01:23:11.401Z,0
2017-05-12T01:24:12.012Z,0
2017-05-12T01:25:12.607Z,0
2017-05-12T01:26:13.219Z,0
2017-05-12T01:27:13.815Z,0
2017-05-12T01:28:14.409Z,0
2017-05-12T01:29:15.008Z,0
2017-05-12T01:30:15.603Z,0
2017-05-12T01:31:16.266Z,0
2017-05-12T01:32:16.864Z,0
2017-05-12T01:33:17.473Z,0
2017-05-12T01:34:18.068Z,0
2017-05-12T01:35:18.674Z,0
2017-05-12T01:36:19.280Z,0
2017-05-12T01:37:19.886Z,0
2017-05-12T01:38:20.484Z,0
2017-05-12T01:39:21.084Z,0
2017-05-12T01:40:21.681Z,0
2017-05-12T01:41:22.275Z,0
2017-05-12T01:42:22.935Z,0
2017-05-12T01:43:23.535Z,0
2017-05-12T01:44:24.142Z,0
2017-05-12T01:45:24.754Z,0
2017-05-12T01:46:25.357Z,0
2017-05-12T01:47:25.962Z,0
2017-05-12T01:48:26.560Z,0
2017-05-12T01:49:27.185Z,0
2017-05-12T01:50:27.779Z,0
2017-05-12T01:51:28.384Z,0
2017-05-12T01:52:28.992Z,0
2017-05-12T01:53:29.597Z,0
2017-05-12T01:54:30.204Z,0
2017-05-12T01:55:30.804Z,0
2017-05-12T01:56:31.413Z,0
2017-05-12T01:57:32.059Z,0
2017-05-12T01:58:32.665Z,0
2017-05-12T01:59:33.265Z,0
2017-05-12T02:00:33.875Z,0
2017-05-12T02:01:34.472Z,0
2017-05-12T02:02:35.078Z,0
2017-05-12T02:03:35.675Z,0
2017-05-12T02:04:36.284Z,0
2017-05-12T02:05:36.880Z,0
2017-05-12T02:06:37.478Z,0
2017-05-12T02:07:38.085Z,0
2017-05-12T02:08:38.683Z,0
2017-05-12T02:09:39.281Z,0
2017-05-12T02:10:39.890Z,0
2017-05-12T02:11:40.488Z,0
2017-05-12T02:12:41.101Z,0
2017-05-12T02:13:41.701Z,0
2017-05-12T02:14:42.312Z,0
2017-05-12T02:15:42.916Z,0
2017-05-12T02:16:43.519Z,0
2017-05-12T02:17:44.178Z,0
2017-05-12T02:18:44.774Z,0
2017-05-12T02:19:45.379Z,0
2017-05-12T02:20:45.972Z,0
2017-05-12T02:21:46.575Z,0
2017-05-12T02:22:47.184Z,0
2017-05-12T02:23:47.789Z,0
2017-05-12T02:24:48.397Z,0
2017-05-12T02:25:48.992Z,0
2017-05-12T02:26:49.585Z,0
2017-05-12T02:27:50.181Z,0
2017-05-12T02:28:50.791Z,0
2017-05-12T02:29:51.398Z,0
2017-05-12T02:30:51.994Z,0
2017-05-12T02:31:52.595Z,0
2017-05-12T02:32:53.188Z,0
2017-05-12T02:33:53.796Z,0
2017-05-12T02:34:54.391Z,0
2017-05-12T02:35:55.008Z,0
2017-05-12T02:36:55.614Z,0
2017-05-12T02:37:56.214Z,0
2017-05-12T02:38:56.825Z,0
2017-05-12T02:39:57.436Z,0
2017-05-12T02:40:58.029Z,0
2017-05-12T02:41:58.625Z,0
2017-05-12T02:42:59.223Z,0
2017-05-12T02:43:59.828Z,0
2017-05-12T02:45:00.427Z,0
2017-05-12T02:46:01.071Z,0
2017-05-12T02:47:01.667Z,0
2017-05-12T02:48:02.266Z,0
2017-05-12T02:49:02.862Z,0
2017-05-12T02:50:03.472Z,0
2017-05-12T02:51:04.085Z,0
2017-05-12T02:52:04.692Z,0
2017-05-12T02:53:05.302Z,0
2017-05-12T02:54:05.898Z,0
2017-05-12T02:55:06.511Z,0
2017-05-12T02:56:07.114Z,0
2017-05-12T02:57:07.721Z,0
2017-05-12T02:58:08.325Z,0
2017-05-12T02:59:08.926Z,0
2017-05-12T03:00:09.527Z,0
2017-05-12T03:01:10.188Z,0
2017-05-12T03:02:10.789Z,0
2017-05-12T03:03:11.399Z,0
2017-05-12T03:04:11.994Z,0
2017-05-12T03:05:12.592Z,0
2017-05-12T03:06:13.201Z,0
2017-05-12T03:07:13.805Z,0
2017-05-12T03:08:14.399Z,0
2017-05-12T03:09:15.002Z,0
2017-05-12T03:10:15.601Z,0
2017-05-12T03:11:16.214Z,0
2017-05-12T03:12:16.818Z,0
2017-05-12T03:13:17.425Z,0
2017-05-12T03:14:18.023Z,0
2017-05-12T03:15:18.620Z,0
2017-05-12T03:16:19.213Z,0
2017-05-12T03:17:19.811Z,0
2017-05-12T03:18:20.423Z,0
2017-05-12T03:19:21.024Z,0
2017-05-12T03:20:21.626Z,0
2017-05-12T03:21:22.232Z,0
2017-05-12T03:22:22.834Z,0
2017-05-12T03:23:23.445Z,0
2017-05-12T03:24:24.052Z,0
2017-05-12T03:25:24.651Z,0
2017-05-12T03:26:25.314Z,0
2017-05-12T03:27:25.914Z,0
2017-05-12T03:28:26.512Z,0
2017-05-12T03:29:27.127Z,0
2017-05-12T03:30:27.737Z,0
2017-05-12T03:31:28.344Z,0
2017-05-12T03:32:28.941Z,0
2017-05-12T03:33:29.552Z,0
2017-05-12T03:34:30.159Z,0
2017-05-12T03:35:30.770Z,0
2017-05-12T03:36:31.384Z,0
2017-05-12T03:37:31.987Z,0
2017-05-12T03:38:32.599Z,0
2017-05-12T03:39:33.217Z,0
2017-05-12T03:40:33.822Z,0
2017-05-12T03:41:34.433Z,0
2017-05-12T03:42:35.033Z,0
2017-05-12T03:43:35.662Z,0
2017-05-12T03:44:36.263Z,0
2017-05-12T03:45:36.879Z,0
2017-05-12T03:46:37.482Z,0
2017-05-12T03:47:38.080Z,5
2017-05-12T03:48:38.676Z,5
2017-05-12T03:49:39.292Z,5
2017-05-12T03:50:39.894Z,5
2017-05-12T03:51:40.506Z,5
2017-05-12T03:52:41.107Z,5
2017-05-12T03:53:41.702Z,5
2017-05-12T03:54:42.313Z,5
2017-05-12T03:55:42.919Z,5
2017-05-12T03:56:43.529Z,5
2017-05-12T03:57:44.140Z,5
2017-05-12T03:58:44.751Z,5
2017-05-12T03:59:45.362Z,5
2017-05-12T04:00:45.974Z,5
2017-05-12T04:01:46.590Z,10
2017-05-12T04:02:47.196Z,10
2017-05-12T04:03:47.795Z,10
2017-05-12T04:04:48.404Z,10
2017-05-12T04:05:49.007Z,10
2017-05-12T04:06:49.622Z,10
2017-05-12T04:07:50.224Z,10
2017-05-12T04:08:50.823Z,10
2017-05-12T04:09:51.432Z,15
2017-05-12T04:10:52.044Z,15
2017-05-12T04:11:52.658Z,15
2017-05-12T04:12:53.272Z,15
2017-05-12T04:13:53.883Z,15
2017-05-12T04:14:54.499Z,20
2017-05-12T04:15:55.116Z,20
2017-05-12T04:16:55.778Z,20
2017-05-12T04:17:56.387Z,20
2017-05-12T04:18:56.989Z,25
2017-05-12T04:19:57.605Z,25
2017-05-12T04:20:58.207Z,25
2017-05-12T04:21:58.823Z,30
2017-05-12T04:22:59.444Z,30
2017-05-12T04:24:00.062Z,30
2017-05-12T04:25:00.666Z,30
2017-05-12T04:26:01.319Z,35
2017-05-12T04:27:01.941Z,35
2017-05-12T04:28:02.543Z,35
2017-05-12T04:29:03.158Z,35
2017-05-12T04:30:03.776Z,40
2017-05-12T04:31:04.393Z,40
2017-05-12T04:32:04.990Z,40
2017-05-12T04:33:05.593Z,40
2017-05-12T04:34:06.213Z,40
2017-05-12T04:35:06.828Z,40
2017-05-12T04:36:07.439Z,45
2017-05-12T04:37:08.043Z,45
2017-05-12T04:38:08.673Z,45
2017-05-12T04:39:09.288Z,45
2017-05-12T04:40:09.890Z,50
2017-05-12T04:41:10.508Z,50
2017-05-12T04:42:11.108Z,55
2017-05-12T04:43:11.722Z,55
2017-05-12T04:44:12.333Z,55
2017-05-12T04:45:12.945Z,55
2017-05-12T04:46:13.545Z,60
2017-05-12T04:47:14.145Z,60
2017-05-12T04:48:14.745Z,60
2017-05-12T04:49:15.361Z,60
2017-05-12T04:50:15.976Z,60
2017-05-12T04:51:16.596Z,65
2017-05-12T04:52:17.203Z,65
2017-05-12T04:53:17.806Z,65
2017-05-12T04:54:18.406Z,65
2017-05-12T04:55:19.020Z,70
2017-05-12T04:56:19.621Z,70
2017-05-12T04:57:20.231Z,75
2017-05-12T04:58:20.835Z,75
2017-05-12T04:59:21.453Z,80
2017-05-12T05:00:22.067Z,80
2017-05-12T05:01:22.727Z,85
2017-05-12T05:02:23.328Z,85
2017-05-12T05:03:23.930Z,90
2017-05-12T05:04:24.534Z,90
2017-05-12T05:05:25.131Z,90
2017-05-12T05:06:25.732Z,95
2017-05-12T05:07:26.336Z,95
2017-05-12T05:08:26.939Z,100
2017-05-12T05:09:27.544Z,105
2017-05-12T05:10:28.158Z,105
2017-05-12T05:11:28.759Z,105
2017-05-12T05:12:29.377Z,105
2017-05-12T05:13:30.979Z,105
2017-05-12T05:14:31.596Z,105
2017-05-12T05:15:32.210Z,110
2017-05-12T05:16:32.878Z,115
2017-05-12T05:17:33.527Z,120
2017-05-12T05:18:34.110Z,115
2017-05-12T05:19:34.715Z,115
2017-05-12T05:20:35.329Z,105
2017-05-12T05:21:35.943Z,100
2017-05-12T05:22:36.557Z,95
2017-05-12T05:23:37.170Z,85
2017-05-12T05:24:37.787Z,95
2017-05-12T05:25:38.447Z,110
2017-05-12T05:26:39.062Z,120
2017-05-12T05:27:39.666Z,125
2017-05-12T05:28:40.266Z,125
2017-05-12T05:29:40.883Z,120
2017-05-12T05:30:41.498Z,125
2017-05-12T05:31:42.106Z,130
2017-05-12T05:32:42.721Z,125
2017-05-12T05:33:43.329Z,115
2017-05-12T05:34:43.945Z,115
2017-05-12T05:35:44.559Z,115
2017-05-12T05:36:45.173Z,115
2017-05-12T05:37:45.774Z,115
2017-05-12T05:38:46.381Z,110
2017-05-12T05:39:46.987Z,120
2017-05-12T05:40:47.607Z,140
2017-05-12T05:41:48.212Z,155
2017-05-12T05:42:48.827Z,175
2017-05-12T05:43:49.441Z,190
2017-05-12T05:44:50.055Z,195
2017-05-12T05:45:50.671Z,190
2017-05-12T05:46:51.319Z,175
2017-05-12T05:47:51.935Z,160
2017-05-12T05:48:52.560Z,155
2017-05-12T05:49:53.194Z,150
2017-05-12T05:50:53.807Z,160
2017-05-12T05:51:54.431Z,160
2017-05-12T05:52:55.036Z,170
2017-05-12T05:53:55.652Z,185
2017-05-12T05:54:56.256Z,200
2017-05-12T05:55:56.869Z,200
2017-05-12T05:56:57.481Z,200
2017-05-12T05:57:58.092Z,215
2017-05-12T05:58:58.697Z,245
2017-05-12T05:59:59.303Z,265
2017-05-12T06:00:59.963Z,285
2017-05-12T06:02:00.571Z,295
2017-05-12T06:03:01.185Z,305
2017-05-12T06:04:01.801Z,315
2017-05-12T06:05:02.413Z,325
2017-05-12T06:06:03.032Z,330
2017-05-12T06:07:03.645Z,335
2017-05-12T06:08:04.258Z,340
2017-05-12T06:09:04.863Z,345
2017-05-12T06:10:05.478Z,355
2017-05-12T06:11:06.094Z,360
2017-05-12T06:12:06.720Z,355
2017-05-12T06:13:07.319Z,355
2017-05-12T06:14:07.925Z,355
2017-05-12T06:15:08.537Z,355
2017-05-12T06:16:09.150Z,350
2017-05-12T06:17:09.766Z,350
2017-05-12T06:18:10.372Z,350
2017-05-12T06:19:10.984Z,350
2017-05-12T06:20:11.604Z,355
2017-05-12T06:21:12.246Z,365
2017-05-12T06:22:12.857Z,370
2017-05-12T06:23:13.470Z,375
2017-05-12T06:24:14.076Z,380
2017-05-12T06:25:14.695Z,385
2017-05-12T06:26:15.318Z,400
2017-05-12T06:27:15.938Z,405
2017-05-12T06:28:16.574Z,410
2017-05-12T06:29:17.188Z,415
2017-05-12T06:30:17.803Z,425
2017-05-12T06:31:18.429Z,440
2017-05-12T06:32:19.053Z,450
2017-05-12T06:33:19.669Z,725
2017-05-12T06:34:20.290Z,945
2017-05-12T06:35:20.920Z,1095
2017-05-12T06:36:21.593Z,1165
2017-05-12T06:37:22.203Z,1385
2017-05-12T06:38:22.841Z,1405
2017-05-12T06:39:23.445Z,1470
2017-05-12T06:40:24.053Z,1480
2017-05-12T06:41:24.666Z,1445
2017-05-12T06:42:25.280Z,1545
2017-05-12T06:43:25.908Z,695
2017-05-12T06:44:26.529Z,1020
2017-05-12T06:45:27.155Z,865
2017-05-12T06:46:27.771Z,735
2017-05-12T06:47:28.398Z,805
2017-05-12T06:48:29.026Z,695
2017-05-12T06:49:29.654Z,775
2017-05-12T06:50:30.287Z,815
2017-05-12T06:51:30.910Z,920
2017-05-12T06:52:31.536Z,1455
2017-05-12T06:53:32.163Z,1630
2017-05-12T06:54:32.791Z,1940
2017-05-12T06:55:33.398Z,2040
2017-05-12T06:56:34.030Z,2100
2017-05-12T06:57:34.655Z,1890
2017-05-12T06:58:35.281Z,975
2017-05-12T06:59:35.914Z,1040
2017-05-12T07:00:36.547Z,1050
2017-05-12T07:01:37.177Z,865
2017-05-12T07:02:37.799Z,885
2017-05-12T07:03:38.419Z,1405
2017-05-12T07:04:39.053Z,1830
2017-05-12T07:05:39.672Z,1840
2017-05-12T07:06:40.342Z,2050
2017-05-12T07:07:40.962Z,2110
2017-05-12T07:08:41.600Z,2110
2017-05-12T07:09:42.229Z,2145
2017-05-12T07:10:42.869Z,2085
2017-05-12T07:11:43.545Z,2050
2017-05-12T07:12:44.180Z,2110
2017-05-12T07:13:44.815Z,2085
2017-05-12T07:14:45.447Z,2065
2017-05-12T07:15:46.083Z,1255
2017-05-12T07:16:46.757Z,1460
2017-05-12T07:17:47.391Z,1595
2017-05-12T07:18:48.007Z,2125
2017-05-12T07:19:48.630Z,2100
2017-05-12T07:20:49.263Z,930
2017-05-12T07:21:49.892Z,2175
2017-05-12T07:22:50.525Z,1340
2017-05-12T07:23:51.151Z,1700
2017-05-12T07:24:51.781Z,1790
2017-05-12T07:25:52.409Z,1425
2017-05-12T07:26:53.037Z,1090
2017-05-12T07:27:53.673Z,1245
2017-05-12T07:28:54.307Z,1490
2017-05-12T07:29:54.943Z,1070
2017-05-12T07:30:55.575Z,975
2017-05-12T07:31:56.193Z,1385
2017-05-12T07:32:56.819Z,1885
2017-05-12T07:33:57.461Z,1170
2017-05-12T07:34:58.079Z,1340
2017-05-12T07:35:58.708Z,1275
2017-05-12T07:36:59.336Z,1235
2017-05-12T07:37:59.958Z,1125
2017-05-12T07:39:00.588Z,950
2017-05-12T07:40:01.214Z,995
2017-05-12T07:41:01.831Z,875
2017-05-12T07:42:02.477Z,895
2017-05-12T07:43:03.096Z,945
2017-05-12T07:44:03.721Z,890
2017-05-12T07:45:04.352Z,910
2017-05-12T07:46:04.992Z,890
2017-05-12T07:47:05.659Z,890
2017-05-12T07:48:06.273Z,925
2017-05-12T07:49:06.903Z,945
2017-05-12T07:50:07.529Z,1050
2017-05-12T07:51:08.153Z,1180
2017-05-12T07:52:08.779Z,935
2017-05-12T07:53:09.407Z,800
2017-05-12T07:54:10.025Z,775
2017-05-12T07:55:10.648Z,775
2017-05-12T07:56:11.272Z,775
2017-05-12T07:57:11.888Z,780
2017-05-12T07:58:12.514Z,800
2017-05-12T07:59:13.138Z,850
2017-05-12T08:00:13.763Z,900
2017-05-12T08:01:14.396Z,955
2017-05-12T08:02:15.074Z,985
2017-05-12T08:03:15.690Z,1090
2017-05-12T08:04:16.305Z,1230
2017-05-12T08:05:16.926Z,1225
2017-05-12T08:06:17.548Z,1095
2017-05-12T08:07:18.183Z,1025
2017-05-12T08:08:18.810Z,940
2017-05-12T08:09:19.444Z,950
2017-05-12T08:10:20.077Z,870
2017-05-12T08:11:20.694Z,870
2017-05-12T08:12:21.361Z,905
2017-05-12T08:13:21.980Z,870
2017-05-12T08:14:22.595Z,975
2017-05-12T08:15:23.222Z,805
2017-05-12T08:16:23.852Z,1325
2017-05-12T08:17:24.522Z,1710
2017-05-12T08:18:25.148Z,1630
2017-05-12T08:19:25.776Z,2005
2017-05-12T08:20:26.391Z,1580
2017-05-12T08:21:27.022Z,1575
2017-05-12T08:22:27.652Z,1415
2017-05-12T08:23:28.286Z,1385
2017-05-12T08:24:28.911Z,1460
2017-05-12T08:25:29.542Z,2175
2017-05-12T08:26:30.179Z,2300
2017-05-12T08:27:30.852Z,2295
2017-05-12T08:28:31.471Z,2435
2017-05-12T08:29:32.090Z,2640
2017-05-12T08:30:32.724Z,2565
2017-05-12T08:31:33.353Z,2535
2017-05-12T08:32:34.147Z,2590
2017-05-12T08:33:34.770Z,2635
2017-05-12T08:34:35.381Z,1565
2017-05-12T08:35:36.001Z,1400
2017-05-12T08:36:36.634Z,1045
2017-05-12T08:37:37.267Z,1505
2017-05-12T08:38:37.892Z,1020
2017-05-12T08:39:38.537Z,1175
2017-05-12T08:40:39.172Z,1935
2017-05-12T08:41:39.798Z,2895
2017-05-12T08:42:40.417Z,2735
2017-05-12T08:43:41.047Z,1110
2017-05-12T08:44:41.676Z,1505
2017-05-12T08:45:42.303Z,1045
2017-05-12T08:46:42.924Z,1045
2017-05-12T08:47:43.543Z,1405
2017-05-12T08:48:44.169Z,1105
2017-05-12T08:49:44.793Z,1025
2017-05-12T08:50:45.424Z,965
2017-05-12T08:51:46.047Z,915
2017-05-12T08:52:46.674Z,890
2017-05-12T08:53:47.290Z,910
2017-05-12T08:54:47.921Z,945
2017-05-12T08:55:48.550Z,955
2017-05-12T08:56:49.184Z,980
2017-05-12T08:57:49.820Z,1000
2017-05-12T08:58:50.455Z,1015
2017-05-12T08:59:51.078Z,1045
2017-05-12T09:00:51.711Z,1060
2017-05-12T09:01:52.344Z,1035
2017-05-12T09:02:53.050Z,1025
2017-05-12T09:03:53.668Z,1010
2017-05-12T09:04:54.282Z,945
2017-05-12T09:05:54.895Z,925
2017-05-12T09:06:55.510Z,930
2017-05-12T09:07:56.187Z,905
2017-05-12T09:08:56.814Z,800
2017-05-12T09:09:57.444Z,715
2017-05-12T09:10:58.078Z,680
2017-05-12T09:11:58.680Z,675
2017-05-12T09:12:59.297Z,640
2017-05-12T09:13:59.908Z,625
2017-05-12T09:15:00.520Z,615
2017-05-12T09:16:01.143Z,610
2017-05-12T09:17:01.759Z,655
2017-05-12T09:18:02.435Z,635
2017-05-12T09:19:03.057Z,1850
2017-05-12T09:20:03.689Z,1950
2017-05-12T09:21:04.302Z,855
2017-05-12T09:22:04.934Z,1930
2017-05-12T09:23:05.564Z,2085
2017-05-12T09:24:06.189Z,2020
2017-05-12T09:25:06.818Z,1970
2017-05-12T09:26:07.454Z,1870
2017-05-12T09:27:08.090Z,1910
2017-05-12T09:28:08.735Z,1865
2017-05-12T09:29:09.362Z,1830
2017-05-12T09:30:09.976Z,1855
2017-05-12T09:31:10.644Z,1580
2017-05-12T09:32:11.266Z,1855
2017-05-12T09:33:11.900Z,1925
2017-05-12T09:34:12.538Z,1915
2017-05-12T09:35:13.175Z,1840
2017-05-12T09:36:13.802Z,1995
2017-05-12T09:37:14.483Z,2020
2017-05-12T09:38:15.107Z,1255
2017-05-12T09:39:15.960Z,705
2017-05-12T09:40:16.576Z,620
2017-05-12T09:41:17.206Z,580
2017-05-12T09:42:17.886Z,560
2017-05-12T09:43:18.506Z,555
2017-05-12T09:44:19.135Z,545
2017-05-12T09:45:19.746Z,510
2017-05-12T09:46:20.371Z,460
2017-05-12T09:47:20.989Z,405
2017-05-12T09:48:21.612Z,325
2017-05-12T09:49:22.228Z,260
2017-05-12T09:50:22.858Z,205
2017-05-12T09:51:23.472Z,170
2017-05-12T09:52:24.087Z,155
2017-05-12T09:53:24.717Z,140
2017-05-12T09:54:25.332Z,125
2017-05-12T09:55:25.956Z,120
2017-05-12T09:56:26.585Z,125
2017-05-12T09:57:27.261Z,145
2017-05-12T09:58:27.872Z,175
2017-05-12T09:59:28.490Z,205
2017-05-12T10:00:29.109Z,240
2017-05-12T10:01:29.723Z,275
2017-05-12T10:02:30.344Z,340
2017-05-12T10:03:30.965Z,400
2017-05-12T10:04:31.573Z,500
2017-05-12T10:05:32.186Z,615
2017-05-12T10:06:32.800Z,715
2017-05-12T10:07:33.429Z,1490
2017-05-12T10:08:34.057Z,1800
2017-05-12T10:09:34.683Z,1520
2017-05-12T10:10:35.295Z,1360
2017-05-12T10:11:35.917Z,635
2017-05-12T10:12:36.539Z,520
2017-05-12T10:13:37.157Z,395
2017-05-12T10:14:37.789Z,340
2017-05-12T10:15:38.432Z,295
2017-05-12T10:16:39.138Z,260
2017-05-12T10:17:39.774Z,240
2017-05-12T10:18:40.407Z,235
2017-05-12T10:19:41.036Z,230
2017-05-12T10:20:41.664Z,250
2017-05-12T10:21:42.289Z,285
2017-05-12T10:22:42.907Z,350
2017-05-12T10:23:43.533Z,425
2017-05-12T10:24:44.161Z,530
2017-05-12T10:25:44.789Z,915
2017-05-12T10:26:45.452Z,1390
2017-05-12T10:27:46.076Z,1700
2017-05-12T10:28:46.706Z,1645
2017-05-12T10:29:47.335Z,1590
2017-05-12T10:30:47.964Z,1565
2017-05-12T10:31:48.637Z,1550
2017-05-12T10:32:49.263Z,1530
2017-05-12T10:33:49.876Z,1545
2017-05-12T10:34:50.509Z,1550
2017-05-12T10:35:51.131Z,1550
2017-05-12T10:36:51.746Z,1605
2017-05-12T10:37:52.374Z,1585
2017-05-12T10:38:52.993Z,570
2017-05-12T10:39:53.607Z,1635
2017-05-12T10:40:54.232Z,1630
2017-05-12T10:41:54.867Z,1570
2017-05-12T10:42:55.487Z,1530
2017-05-12T10:43:56.103Z,1495
2017-05-12T10:44:56.723Z,1495
2017-05-12T10:45:57.404Z,1545
2017-05-12T10:46:58.037Z,1585
2017-05-12T10:47:58.669Z,1640
2017-05-12T10:48:59.294Z,1675
2017-05-12T10:49:59.912Z,1670
2017-05-12T10:51:00.528Z,1710
2017-05-12T10:52:01.154Z,1740
2017-05-12T10:53:01.771Z,1710
2017-05-12T10:54:02.395Z,1740
2017-05-12T10:55:03.009Z,985
2017-05-12T10:56:03.642Z,1705
2017-05-12T10:57:04.279Z,820
2017-05-12T10:58:04.904Z,795
2017-05-12T10:59:05.536Z,1205
2017-05-12T11:00:06.168Z,1900
2017-05-12T11:01:06.787Z,1545
2017-05-12T11:02:07.409Z,800
2017-05-12T11:03:08.034Z,845
2017-05-12T11:04:08.659Z,975
2017-05-12T11:05:09.275Z,1810
2017-05-12T11:06:09.950Z,1835
2017-05-12T11:07:10.581Z,1805
2017-05-12T11:08:11.200Z,1825
2017-05-12T11:09:11.824Z,1820
2017-05-12T11:10:12.434Z,1795
2017-05-12T11:11:13.062Z,1755
2017-05-12T11:12:13.684Z,1735
2017-05-12T11:13:14.319Z,1730
2017-05-12T11:14:14.949Z,1725
2017-05-12T11:15:15.579Z,715
2017-05-12T11:16:16.199Z,1535
2017-05-12T11:17:16.837Z,685
2017-05-12T11:18:17.451Z,680
2017-05-12T11:19:18.081Z,800
2017-05-12T11:20:18.713Z,1755
2017-05-12T11:21:19.401Z,1785
2017-05-12T11:22:20.035Z,1790
2017-05-12T11:23:20.665Z,1000
2017-05-12T11:24:21.303Z,1435
2017-05-12T11:25:21.936Z,820
2017-05-12T11:26:22.561Z,1060
2017-05-12T11:27:23.184Z,1690
2017-05-12T11:28:23.824Z,1630
2017-05-12T11:29:24.452Z,1575
2017-05-12T11:30:25.075Z,1570
2017-05-12T11:31:25.694Z,1555
2017-05-12T11:32:26.324Z,455
2017-05-12T11:33:26.963Z,1570
2017-05-12T11:34:27.593Z,420
2017-05-12T11:35:28.220Z,435
2017-05-12T11:36:28.837Z,805
2017-05-12T11:37:29.456Z,1545
2017-05-12T11:38:30.084Z,1555
2017-05-12T11:39:30.727Z,1555
2017-05-12T11:40:31.548Z,1540
2017-05-12T11:41:32.237Z,1520
2017-05-12T11:42:32.884Z,1500
2017-05-12T11:43:33.524Z,1480
2017-05-12T11:44:34.144Z,1510
2017-05-12T11:45:34.778Z,1500
2017-05-12T11:46:35.458Z,450
2017-05-12T11:47:36.085Z,1490
2017-05-12T11:48:36.720Z,985
2017-05-12T11:49:37.348Z,480
2017-05-12T11:50:37.982Z,1550
2017-05-12T11:51:38.619Z,1560
2017-05-12T11:52:39.245Z,1560
2017-05-12T11:53:39.865Z,590
2017-05-12T11:54:40.491Z,1615
2017-05-12T11:55:41.134Z,1610
2017-05-12T11:56:41.769Z,1590
2017-05-12T11:57:42.401Z,1545
2017-05-12T11:58:43.023Z,1520
2017-05-12T11:59:43.661Z,1525
2017-05-12T12:00:44.286Z,1555
2017-05-12T12:01:44.955Z,1615
2017-05-12T12:02:45.588Z,1595
2017-05-12T12:03:46.208Z,1595
2017-05-12T12:04:46.839Z,1515
2017-05-12T12:05:47.470Z,1620
2017-05-12T12:06:48.095Z,1605
2017-05-12T12:07:48.733Z,1645
2017-05-12T12:08:49.381Z,1685
2017-05-12T12:09:50.016Z,1665
2017-05-12T12:10:50.654Z,1635
2017-05-12T12:11:51.333Z,880
2017-05-12T12:12:51.953Z,1440
2017-05-12T12:13:52.573Z,880
2017-05-12T12:14:53.198Z,1500
2017-05-12T12:15:53.840Z,815
2017-05-12T12:16:54.513Z,740
2017-05-12T12:17:55.126Z,665
2017-05-12T12:18:55.747Z,600
2017-05-12T12:19:56.383Z,860
2017-05-12T12:20:57.016Z,1075
2017-05-12T12:21:57.632Z,1450
2017-05-12T12:22:58.255Z,1390
2017-05-12T12:23:58.889Z,1365
2017-05-12T12:24:59.523Z,1360
2017-05-12T12:26:00.157Z,1375
2017-05-12T12:27:00.777Z,1400
2017-05-12T12:28:01.399Z,1385
2017-05-12T12:29:02.022Z,975
2017-05-12T12:30:02.661Z,1370
2017-05-12T12:31:03.288Z,1385
2017-05-12T12:32:03.910Z,1390
2017-05-12T12:33:04.537Z,1370
2017-05-12T12:34:05.166Z,1335
2017-05-12T12:35:05.794Z,1330
2017-05-12T12:36:06.413Z,1320
2017-05-12T12:37:07.084Z,1325
2017-05-12T12:38:07.719Z,1310
2017-05-12T12:39:08.356Z,1305
2017-05-12T12:40:08.994Z,1350
2017-05-12T12:41:09.616Z,995
2017-05-12T12:42:10.248Z,520
2017-05-12T12:43:10.880Z,435
2017-05-12T12:44:11.494Z,445
2017-05-12T12:45:12.128Z,495
2017-05-12T12:46:12.761Z,660
2017-05-12T12:47:13.398Z,1565
2017-05-12T12:48:14.027Z,1570
2017-05-12T12:49:14.659Z,615
2017-05-12T12:50:15.291Z,655
2017-05-12T12:51:15.906Z,845
2017-05-12T12:52:16.523Z,810
2017-05-12T12:53:17.145Z,1485
2017-05-12T12:54:17.785Z,1400
2017-05-12T12:55:18.427Z,1370
2017-05-12T12:56:19.052Z,1360
2017-05-12T12:57:19.678Z,1370
2017-05-12T12:58:20.308Z,1365
2017-05-12T12:59:20.934Z,1375
2017-05-12T13:00:21.591Z,1355
2017-05-12T13:01:22.228Z,1295
2017-05-12T13:02:22.904Z,1255
2017-05-12T13:03:23.531Z,1235
2017-05-12T13:04:24.162Z,1135
2017-05-12T13:05:24.783Z,1095
2017-05-12T13:06:25.417Z,1110
2017-05-12T13:07:26.036Z,1090
2017-05-12T13:08:26.668Z,980
2017-05-12T13:09:27.300Z,965
2017-05-12T13:10:27.924Z,1125
2017-05-12T13:11:28.557Z,745
2017-05-12T13:12:29.239Z,1335
2017-05-12T13:13:29.865Z,1310
2017-05-12T13:14:30.484Z,1345
2017-05-12T13:15:31.122Z,1320
2017-05-12T13:16:31.737Z,1315
2017-05-12T13:17:32.369Z,505
2017-05-12T13:18:32.990Z,570
2017-05-12T13:19:33.611Z,1330
2017-05-12T13:20:34.247Z,1350
2017-05-12T13:21:34.880Z,1320
2017-05-12T13:22:35.561Z,585
2017-05-12T13:23:36.186Z,1365
2017-05-12T13:24:36.808Z,1400
2017-05-12T13:25:37.443Z,1420
2017-05-12T13:26:38.067Z,1410
2017-05-12T13:27:38.747Z,1415
2017-05-12T13:28:39.379Z,1410
2017-05-12T13:29:40.007Z,1440
2017-05-12T13:30:40.636Z,1400
2017-05-12T13:31:41.274Z,1440
2017-05-12T13:32:41.902Z,890
2017-05-12T13:33:42.524Z,1010
2017-05-12T13:34:43.143Z,1410
2017-05-12T13:35:43.777Z,1460
2017-05-12T13:36:44.406Z,1395
2017-05-12T13:37:45.032Z,1335
2017-05-12T13:38:45.662Z,1255
2017-05-12T13:39:46.279Z,1180
2017-05-12T13:40:46.902Z,490
2017-05-12T13:41:47.535Z,520
2017-05-12T13:42:48.171Z,1100
2017-05-12T13:43:48.801Z,975
2017-05-12T13:44:49.438Z,1110
2017-05-12T13:45:50.075Z,1115
2017-05-12T13:46:50.711Z,1110
2017-05-12T13:47:51.340Z,1120
2017-05-12T13:48:51.974Z,1115
2017-05-12T13:49:52.593Z,1100
2017-05-12T13:50:53.212Z,795
2017-05-12T13:51:53.842Z,1040
2017-05-12T13:52:54.479Z,845
2017-05-12T13:53:55.118Z,770
2017-05-12T13:54:55.734Z,850
2017-05-12T13:55:56.364Z,865
2017-05-12T13:56:56.996Z,815
2017-05-12T13:57:57.613Z,835
2017-05-12T13:58:58.235Z,875
2017-05-12T13:59:58.857Z,1100
2017-05-12T14:00:59.476Z,805
2017-05-12T14:02:00.095Z,850
2017-05-12T14:03:00.727Z,1045
2017-05-12T14:04:01.393Z,625